createdAt,value
2023-03-23T16:00:19.904Z,16165.34
2023-03-23T16:04:21.932Z,16183.75
2023-03-23T16:08:24.713Z,16222.63
2023-03-23T16:12:26.220Z,16128.56
2023-03-23T16:16:29.924Z,16202.16
2023-03-23T16:20:31.602Z,16226.69
2023-03-23T16:24:34.349Z,16159.22
2023-03-23T16:28:35.839Z,16165.34
2023-03-23T16:36:37.857Z,16165.34
2023-03-23T16:40:40.674Z,16179.66
2023-03-23T16:44:42.088Z,16171.50
2023-03-23T16:48:43.768Z,16234.88
2023-03-23T16:52:46.867Z,16173.53
2023-03-23T16:56:49.647Z,16140.81
2023-03-23T17:00:52.106Z,16153.09
2023-03-23T17:04:53.584Z,16153.09
2023-03-23T17:08:55.001Z,16161.28
2023-03-23T17:12:57.714Z,16101.97
2023-03-23T17:16:59.946Z,16120.38
2023-03-23T17:21:01.367Z,16079.47
2023-03-23T17:25:05.283Z,16116.28
2023-03-23T17:29:08.218Z,16128.56
2023-03-23T17:33:10.479Z,16067.22
2023-03-23T17:37:11.914Z,16118.34
2023-03-23T17:41:13.359Z,16077.44
2023-03-23T17:45:16.402Z,16097.88
2023-03-23T17:49:18.231Z,16095.84
2023-03-23T17:53:19.711Z,16124.47
2023-03-23T17:57:21.120Z,16087.66
2023-03-23T18:01:23.978Z,16083.56
2023-03-23T18:05:25.440Z,16097.88
2023-03-23T18:09:26.870Z,16091.75
2023-03-23T18:13:31.070Z,16054.94
2023-03-23T18:17:33.875Z,16077.44
2023-03-23T18:21:35.386Z,16057.00
2023-03-23T18:25:37.543Z,16046.75
2023-03-23T18:29:38.976Z,16073.34
2023-03-23T18:33:42.674Z,16046.75
2023-03-23T18:37:44.271Z,16083.56
2023-03-23T18:41:45.759Z,16061.06
2023-03-23T18:45:49.100Z,16040.63
2023-03-23T18:49:51.942Z,16046.75
2023-03-23T18:53:53.559Z,16020.19
2023-03-23T18:57:54.948Z,16040.63
2023-03-23T19:01:56.625Z,16046.75
2023-03-23T19:06:00.150Z,16065.16
2023-03-23T19:25:23.074Z,16001.78
2023-03-23T19:40:22.656Z,16022.22
2023-03-23T19:44:29.126Z,15973.16
